LGTS/SKG METAR and TAF weather

Enter ICAO airport designator
Station Type Date Time Source
LGTS METAR 2022/11/30 10:20 UTC NOAA

LGTS 301020Z 26007KT 9999 DZ FEW015 BKN030 12/11 Q1014 TEMPO 6000 RA


Station Type Date Time Source
LGTS Decoded METAR 2022/11/30 10:20 UTC NOAA

Thessaloniki Airport , Greece (LGTS) 40-31N 022-58E 4M
Nov 30, 2022 - 05:20 AM EST / 2022.11.30 1020 UTC
Wind: from the W (260 degrees) at 8 MPH (7 KT):0
Visibility: greater than 7 mile(s):0
Sky conditions: mostly cloudy
Weather: drizzle
Temperature: 53 F (12 C)
Dew Point: 51 F (11 C)
Relative Humidity: 93%
Pressure (altimeter): 29.94 in. Hg (1014 hPa)
ob: LGTS 301020Z 26007KT 9999 DZ FEW015 BKN030 12/11 Q1014 TEMPO 6000 RA
cycle: 10

Station Type Date Time Source
LGTS TAF 2022/11/30 07:13 UTC NOAA

TAF
AMD LGTS 300607Z 3007/0106 36010KT 9999 FEW010 BKN025
TEMPO 3007/0106 5000 RA FEW008 BKN020 PROB40
TEMPO 3016/0106 3000 TSRA SCT008 FEW018CB BKN020

Example: see airport list